Time;durP1;ratioP1;P1;durP2;ratioP2;P2;SDS_P1;SDS_P2;PMS_P1;PMS_P2;Temp;Humidity;BMP_temperature;BMP_pressure;BME280_temperature;BME280_humidity;BME280_pressure;Samples;Min_cycle;Max_cycle;Signal;HPM_P1;HPM_P2
2022/06/25 00:01:14;;;;;;;2.27;2.17;;;;;;;21.63;54.52;100661.44;4949293;28;97146;-88
2022/06/25 00:03:41;;;;;;;2.00;1.90;;;;;;;21.63;54.57;100661.44;4952039;28;97272;-87
2022/06/25 00:06:07;;;;;;;2.13;2.03;;;;;;;21.64;54.73;100666.44;4949516;28;97469;-88
2022/06/25 00:08:34;;;;;;;2.13;2.03;;;;;;;21.65;54.62;100667.19;4947889;28;97853;-87
2022/06/25 00:11:00;;;;;;;1.83;1.73;;;;;;;21.64;54.66;100668.53;4948546;28;96695;-88
2022/06/25 00:13:26;;;;;;;2.13;2.03;;;;;;;21.63;54.66;100669.81;4948591;28;96989;-88
2022/06/25 00:15:52;;;;;;;5.00;2.00;;;;;;;21.61;54.49;100689.25;4948890;28;98007;-88
2022/06/25 00:18:17;;;;;;;2.30;1.80;;;;;;;21.50;54.83;100678.50;4946989;28;97036;-87
2022/06/25 00:20:44;;;;;;;2.33;2.20;;;;;;;21.38;55.04;100680.97;4945389;28;96931;-87
2022/06/25 00:23:10;;;;;;;2.07;1.97;;;;;;;21.27;55.44;100691.84;4954065;28;96943;-88
2022/06/25 00:25:35;;;;;;;2.10;2.00;;;;;;;21.27;55.29;100703.81;4949146;28;96987;-86
2022/06/25 00:28:01;;;;;;;1.93;1.83;;;;;;;21.32;55.46;100714.03;4940515;28;96637;-88
2022/06/25 00:30:28;;;;;;;2.87;1.97;;;;;;;21.33;55.27;100707.13;4949332;28;96616;-88
2022/06/25 00:32:54;;;;;;;1.93;1.83;;;;;;;21.35;55.14;100712.16;4948203;28;97051;-90
2022/06/25 00:35:20;;;;;;;2.23;2.13;;;;;;;21.28;55.26;100715.72;4946838;28;97080;-88
2022/06/25 00:37:46;;;;;;;2.07;1.97;;;;;;;21.25;55.27;100733.66;4945396;28;96727;-88
2022/06/25 00:40:11;;;;;;;2.13;2.03;;;;;;;21.20;55.47;100732.56;4949488;28;97031;-88
2022/06/25 00:42:37;;;;;;;2.30;2.10;;;;;;;21.19;55.48;100724.72;4949262;28;97288;-88
2022/06/25 00:45:03;;;;;;;2.00;1.90;;;;;;;21.16;55.35;100720.25;4942177;28;97043;-89
2022/06/25 00:47:28;;;;;;;2.60;2.40;;;;;;;21.12;55.48;100731.81;4948516;28;97384;-89
2022/06/25 00:49:54;;;;;;;2.10;2.00;;;;;;;21.11;55.60;100730.34;4946950;28;97291;-88
2022/06/25 00:52:21;;;;;;;2.20;2.10;;;;;;;21.16;55.63;100748.25;4952100;28;96745;-88
2022/06/25 00:54:54;;;;;;;2.70;2.50;;;;;;;21.17;56.08;100733.69;4926624;28;97778;-88
2022/06/25 00:57:24;;;;;;;2.07;1.97;;;;;;;21.18;55.48;100745.63;4956303;28;97759;-90
2022/06/25 00:59:51;;;;;;;2.50;2.40;;;;;;;21.13;55.51;100740.97;4950823;28;96637;-87
2022/06/25 01:02:18;;;;;;;2.43;2.30;;;;;;;21.11;55.54;100749.19;4949429;28;97171;-88
2022/06/25 01:04:44;;;;;;;2.90;2.70;;;;;;;21.09;55.61;100760.19;4944463;28;97480;-88
2022/06/25 01:07:09;;;;;;;2.40;2.30;;;;;;;21.07;55.61;100760.75;4931306;28;96621;-89
2022/06/25 01:09:37;;;;;;;2.20;2.07;;;;;;;21.00;55.56;100763.53;4952824;28;97042;-87
2022/06/25 01:12:03;;;;;;;2.60;2.50;;;;;;;20.98;55.68;100766.16;4953153;28;97476;-89
2022/06/25 01:14:29;;;;;;;2.20;2.10;;;;;;;20.95;55.67;100762.41;4949495;28;97314;-88
2022/06/25 01:16:54;;;;;;;2.87;2.77;;;;;;;20.95;55.69;100756.81;4953001;28;97391;-89
2022/06/25 01:19:20;;;;;;;3.03;2.83;;;;;;;20.89;55.87;100770.28;4971602;28;97125;-87
2022/06/25 01:21:45;;;;;;;2.77;2.57;;;;;;;20.81;56.05;100781.47;4949916;28;97004;-88
2022/06/25 01:24:11;;;;;;;2.70;2.40;;;;;;;20.81;56.09;100773.09;4955377;28;96592;-87
2022/06/25 01:26:41;;;;;;;2.50;2.40;;;;;;;20.80;56.06;100774.38;4940740;28;96912;-87
2022/06/25 01:29:08;;;;;;;2.57;2.47;;;;;;;20.80;56.18;100768.78;4952838;28;96520;-87
2022/06/25 01:31:35;;;;;;;2.60;2.50;;;;;;;20.77;56.18;100783.88;4949109;28;96813;-88
2022/06/25 01:34:01;;;;;;;3.00;2.80;;;;;;;20.75;56.15;100766.91;4951205;28;97508;-87
2022/06/25 01:36:26;;;;;;;2.30;2.20;;;;;;;20.68;56.06;100767.69;4960107;28;97402;-88
2022/06/25 01:38:52;;;;;;;2.10;2.00;;;;;;;20.65;55.98;100771.59;4945685;28;96875;-90
2022/06/25 01:41:18;;;;;;;1.90;1.80;;;;;;;20.62;56.19;100760.81;4960957;28;97060;-88
2022/06/25 01:43:44;;;;;;;2.83;2.63;;;;;;;20.57;56.12;100754.09;4957616;28;98195;-87
2022/06/25 01:46:10;;;;;;;2.47;2.37;;;;;;;20.56;56.21;100760.22;4957098;28;97138;-88
2022/06/25 01:48:36;;;;;;;2.37;2.27;;;;;;;20.61;56.17;100767.69;4959828;28;96872;-88
2022/06/25 01:51:02;;;;;;;3.53;2.50;;;;;;;20.58;56.32;100763.19;4955694;28;96770;-87
2022/06/25 01:53:28;;;;;;;2.50;2.40;;;;;;;20.54;56.23;100760.78;4970760;28;97049;-87
2022/06/25 01:55:54;;;;;;;3.00;2.80;;;;;;;20.47;56.25;100764.31;4953858;28;99794;-87
2022/06/25 01:58:19;;;;;;;3.93;2.80;;;;;;;20.47;56.25;100775.50;4945616;28;96942;-88
2022/06/25 02:00:45;;;;;;;2.60;2.50;;;;;;;20.42;56.40;100770.09;4934030;28;97155;-87
2022/06/25 02:03:11;;;;;;;2.40;2.20;;;;;;;20.42;56.36;100762.44;4937451;28;96833;-87
2022/06/25 02:08:22;;;;;;;2.47;2.37;;;;;;;20.36;56.42;100753.50;4946767;28;97465;-86
2022/06/25 02:10:48;;;;;;;2.53;2.43;;;;;;;20.35;56.33;100752.03;4951214;28;96848;-87
2022/06/25 02:13:14;;;;;;;3.23;3.03;;;;;;;20.37;56.45;100760.59;4936762;28;97649;-87
2022/06/25 02:15:40;;;;;;;3.27;3.07;;;;;;;20.36;56.74;100772.31;4941292;28;99381;-87
2022/06/25 02:18:05;;;;;;;2.40;2.30;;;;;;;20.35;56.35;100771.59;4952664;28;97555;-87
2022/06/25 02:20:31;;;;;;;2.83;2.63;;;;;;;20.35;56.31;100771.59;4954158;28;97998;-87
2022/06/25 02:22:57;;;;;;;2.20;2.10;;;;;;;20.34;56.42;100778.47;4958261;28;97477;-86
2022/06/25 02:25:22;;;;;;;2.47;2.37;;;;;;;20.36;56.43;100773.06;4954030;28;97490;-90
2022/06/25 02:27:48;;;;;;;2.50;2.40;;;;;;;20.35;56.30;100782.03;4954077;28;97239;-86
2022/06/25 02:30:14;;;;;;;3.57;3.20;;;;;;;20.35;56.38;100776.44;4960914;28;96840;-88
2022/06/25 02:32:39;;;;;;;2.20;2.10;;;;;;;20.35;56.41;100785.56;4959321;28;96659;-87
2022/06/25 02:35:05;;;;;;;2.90;2.80;;;;;;;20.35;56.45;100773.63;4959327;28;98409;-88
2022/06/25 02:37:31;;;;;;;2.53;2.43;;;;;;;20.33;56.53;100777.00;4958839;28;97300;-87
2022/06/25 02:39:56;;;;;;;2.80;2.60;;;;;;;20.30;56.62;100782.94;4959572;28;96769;-87
2022/06/25 02:42:21;;;;;;;2.83;2.73;;;;;;;20.27;56.66;100779.22;4958253;28;96856;-88
2022/06/25 02:44:47;;;;;;;2.70;2.60;;;;;;;20.25;56.66;100779.03;4953224;28;97971;-87
2022/06/25 02:47:12;;;;;;;2.73;2.63;;;;;;;20.25;56.49;100792.28;4959055;28;96122;-87
2022/06/25 02:49:38;;;;;;;2.60;2.50;;;;;;;20.22;56.36;100787.78;4962262;28;97248;-87
2022/06/25 02:52:03;;;;;;;2.80;2.60;;;;;;;20.15;56.27;100776.00;4953404;28;98089;-87
2022/06/25 02:54:29;;;;;;;2.83;2.63;;;;;;;20.12;56.50;100773.56;4958629;28;98400;-87
2022/06/25 02:59:40;;;;;;;3.27;3.07;;;;;;;20.03;56.53;100790.88;4965336;28;97334;-87
2022/06/25 03:02:05;;;;;;;3.00;2.80;;;;;;;20.02;56.71;100787.34;4963675;28;96780;-89
2022/06/25 03:04:31;;;;;;;3.60;3.30;;;;;;;20.03;56.72;100794.41;4962015;28;97294;-87
2022/06/25 03:06:56;;;;;;;2.53;2.43;;;;;;;20.05;56.78;100802.25;4962233;28;97177;-87
2022/06/25 03:09:23;;;;;;;2.60;2.50;;;;;;;20.05;56.79;100789.00;4965618;28;96516;-88
2022/06/25 03:11:49;;;;;;;2.73;2.53;;;;;;;20.05;56.80;100802.25;4961697;28;102974;-87
2022/06/25 03:14:14;;;;;;;3.27;3.07;;;;;;;20.03;56.77;100816.00;4950714;28;99349;-87
2022/06/25 03:16:40;;;;;;;2.73;2.63;;;;;;;20.05;56.91;100791.09;4968876;28;96741;-91
2022/06/25 03:19:05;;;;;;;2.70;2.60;;;;;;;20.04;56.76;100779.16;4962269;28;96547;-88
2022/06/25 03:21:31;;;;;;;2.77;2.67;;;;;;;20.00;56.87;100772.44;4960476;28;96875;-87
2022/06/25 03:23:56;;;;;;;2.90;2.80;;;;;;;19.91;56.77;100776.50;4954040;28;97143;-88
2022/06/25 03:26:22;;;;;;;2.63;2.53;;;;;;;19.97;56.72;100795.88;4953562;28;96603;-89
2022/06/25 03:28:47;;;;;;;3.67;3.37;;;;;;;19.93;56.90;100785.09;4962152;28;96859;-88
2022/06/25 03:31:13;;;;;;;3.80;3.50;;;;;;;19.91;56.94;100787.69;4961854;28;96892;-89
2022/06/25 03:33:39;;;;;;;3.10;2.97;;;;;;;19.90;56.96;100802.19;4954573;28;96900;-87
2022/06/25 03:36:04;;;;;;;3.27;3.17;;;;;;;19.92;57.10;100783.59;4941252;28;96809;-88
2022/06/25 03:38:30;;;;;;;2.83;2.73;;;;;;;19.92;56.95;100802.41;4963165;28;96877;-85
2022/06/25 03:43:41;;;;;;;3.20;3.07;;;;;;;19.93;56.96;100799.03;4957609;28;97106;-88
2022/06/25 03:46:07;;;;;;;3.40;3.20;;;;;;;19.92;57.08;100791.97;4976003;28;96668;-87
2022/06/25 03:48:33;;;;;;;4.03;3.77;;;;;;;19.94;57.20;100800.53;4943258;28;97352;-88
2022/06/25 03:50:58;;;;;;;3.23;3.03;;;;;;;19.93;57.11;100810.22;4956578;28;96953;-87
2022/06/25 03:53:24;;;;;;;3.37;3.17;;;;;;;19.89;57.18;100811.88;4953413;28;97450;-88
2022/06/25 03:55:50;;;;;;;3.70;3.50;;;;;;;19.89;57.16;100806.28;4946434;28;96768;-88
2022/06/25 03:58:15;;;;;;;2.80;2.70;;;;;;;19.91;57.13;100831.63;4956333;28;96903;-89
2022/06/25 04:00:40;;;;;;;3.23;3.03;;;;;;;19.88;57.06;100839.06;4958431;28;96808;-89
2022/06/25 04:03:06;;;;;;;3.30;3.10;;;;;;;19.87;57.04;100815.22;4959679;28;96745;-88
2022/06/25 04:05:31;;;;;;;3.73;3.53;;;;;;;19.85;57.20;100814.28;4962927;28;97192;-89
2022/06/25 04:07:57;;;;;;;3.97;3.67;;;;;;;19.81;57.09;100813.91;4959744;28;96975;-88
2022/06/25 04:10:22;;;;;;;3.90;3.13;;;;;;;19.79;57.26;100808.84;4957785;28;97023;-89
2022/06/25 04:12:48;;;;;;;2.77;2.57;;;;;;;19.81;57.30;100816.69;4958073;28;98568;-87
2022/06/25 04:15:13;;;;;;;3.10;3.00;;;;;;;19.76;57.40;100826.72;4965645;28;96726;-89
2022/06/25 04:17:39;;;;;;;3.27;3.07;;;;;;;19.80;57.46;100837.53;4962795;28;96927;-88
2022/06/25 04:20:05;;;;;;;2.83;2.73;;;;;;;19.73;57.52;100836.19;4960708;28;97586;-88
2022/06/25 04:22:30;;;;;;;3.53;3.33;;;;;;;19.81;57.44;100841.84;4956524;28;96713;-87
2022/06/25 04:24:55;;;;;;;2.97;2.87;;;;;;;19.84;57.54;100823.94;4955047;28;97124;-88
2022/06/25 04:30:06;;;;;;;3.33;3.13;;;;;;;19.86;57.51;100835.31;4956415;28;100355;-87
2022/06/25 04:32:31;;;;;;;3.13;2.93;;;;;;;19.85;57.65;100845.75;4973547;28;98486;-87
2022/06/25 04:34:57;;;;;;;3.37;3.07;;;;;;;19.84;57.58;100860.25;4946969;28;96786;-88
2022/06/25 04:37:22;;;;;;;3.27;3.03;;;;;;;19.85;57.68;100837.38;4946125;28;96505;-90
2022/06/25 04:39:47;;;;;;;3.17;2.97;;;;;;;19.85;57.54;100862.50;4961858;28;97038;-90
2022/06/25 04:42:13;;;;;;;3.33;3.17;;;;;;;19.86;57.70;100840.91;4958728;28;98324;-90
2022/06/25 04:44:38;;;;;;;3.30;3.17;;;;;;;19.82;57.80;100851.69;4963216;28;96268;-87
2022/06/25 04:47:04;;;;;;;2.50;2.40;;;;;;;19.88;57.69;100855.06;4959850;28;97079;-88
2022/06/25 04:49:29;;;;;;;3.00;2.90;;;;;;;19.89;57.73;100848.94;4944785;28;97573;-87
2022/06/25 04:51:55;;;;;;;3.27;3.07;;;;;;;19.95;57.73;100873.88;4957870;28;97092;-87
2022/06/25 04:54:21;;;;;;;3.00;2.90;;;;;;;20.01;57.74;100860.50;4942437;28;96514;-87
2022/06/25 04:56:46;;;;;;;3.33;3.17;;;;;;;20.10;57.77;100865.56;4956757;28;96907;-88
2022/06/25 04:59:12;;;;;;;2.90;2.80;;;;;;;20.17;57.81;100864.84;4958402;28;96747;-87
2022/06/25 05:01:37;;;;;;;3.60;2.90;;;;;;;20.25;57.89;100871.22;4967713;28;96820;-87
2022/06/25 05:04:03;;;;;;;3.13;3.03;;;;;;;20.35;57.67;100877.78;4955862;28;96644;-87
2022/06/25 05:06:28;;;;;;;3.53;3.33;;;;;;;20.45;57.75;100867.56;4953046;28;96530;-89
2022/06/25 05:08:54;;;;;;;3.57;3.37;;;;;;;20.54;57.92;100871.84;4958407;28;96957;-87
2022/06/25 05:11:20;;;;;;;4.50;4.20;;;;;;;20.59;57.86;100891.25;4964711;28;97275;-86
2022/06/25 05:13:48;;;;;;;3.93;3.73;;;;;;;20.73;57.98;100895.38;4959213;28;96665;-87
2022/06/25 05:16:13;;;;;;;4.10;3.90;;;;;;;20.80;58.04;100868.72;4964591;28;96761;-86
2022/06/25 05:18:39;;;;;;;4.33;4.10;;;;;;;20.92;58.18;100873.38;4941169;28;102239;-85
2022/06/25 05:21:04;;;;;;;4.67;4.30;;;;;;;21.03;58.01;100875.09;4950943;28;96762;-85
2022/06/25 05:23:30;;;;;;;5.60;5.20;;;;;;;21.12;58.29;100873.78;4954247;28;97291;-89
2022/06/25 05:25:55;;;;;;;9.03;4.67;;;;;;;21.24;58.53;100875.63;4959136;28;96894;-87
2022/06/25 05:28:21;;;;;;;5.87;5.37;;;;;;;21.37;58.44;100874.69;4959158;28;96876;-90
2022/06/25 05:30:46;;;;;;;5.30;4.90;;;;;;;21.47;58.42;100873.53;4968638;28;96611;-85
2022/06/25 05:33:12;;;;;;;4.97;4.50;;;;;;;21.58;58.61;100873.13;4949852;28;96627;-89
2022/06/25 05:35:38;;;;;;;4.23;3.87;;;;;;;21.72;58.66;100887.66;4959077;28;96587;-86
2022/06/25 05:38:05;;;;;;;3.93;3.73;;;;;;;21.87;58.48;100881.28;4962858;28;96837;-89
2022/06/25 05:40:31;;;;;;;3.93;3.53;;;;;;;22.03;58.54;100882.72;4955679;28;96673;-87
2022/06/25 05:42:56;;;;;;;4.50;4.10;;;;;;;22.21;58.35;100892.75;4955634;28;96916;-86
2022/06/25 05:45:22;;;;;;;4.03;3.70;;;;;;;22.38;58.19;100884.41;4953273;28;96489;-89
2022/06/25 05:47:48;;;;;;;3.20;3.00;;;;;;;22.53;57.93;100887.13;4964174;28;97895;-90
2022/06/25 05:50:14;;;;;;;3.40;3.27;;;;;;;22.74;57.84;100900.84;4953557;28;97082;-87
2022/06/25 05:52:39;;;;;;;6.70;2.90;;;;;;;22.92;57.71;100899.59;4960596;28;96549;-88
2022/06/25 05:55:06;;;;;;;3.17;2.90;;;;;;;23.10;57.44;100898.34;4956234;28;97208;-86
2022/06/25 05:57:32;;;;;;;2.67;2.50;;;;;;;23.27;57.11;100901.16;4958700;28;97223;-86
2022/06/25 05:59:58;;;;;;;2.63;2.43;;;;;;;23.40;56.71;100922.59;4956371;28;98408;-90
2022/06/25 06:02:26;;;;;;;2.60;2.50;;;;;;;23.52;56.75;100907.53;4947606;28;97222;-85
2022/06/25 06:04:52;;;;;;;3.03;2.83;;;;;;;23.64;56.51;100911.31;4944165;28;96511;-87
2022/06/25 06:07:19;;;;;;;2.80;2.60;;;;;;;23.79;56.22;100913.22;4952316;28;99035;-86
2022/06/25 06:09:44;;;;;;;2.70;2.20;;;;;;;23.90;56.27;100911.97;4955481;28;96568;-87
2022/06/25 06:12:10;;;;;;;2.67;2.50;;;;;;;24.05;56.18;100923.06;4957496;28;97118;-90
2022/06/25 06:14:35;;;;;;;2.60;2.40;;;;;;;24.12;55.67;100922.97;4957935;28;96302;-88
2022/06/25 06:17:01;;;;;;;2.70;2.50;;;;;;;24.21;55.42;100936.34;4955962;28;98335;-87
2022/06/25 06:19:26;;;;;;;3.33;2.20;;;;;;;24.29;55.25;100920.13;4962585;28;96428;-88
2022/06/25 06:21:52;;;;;;;2.30;2.20;;;;;;;24.35;55.06;100934.66;4957518;28;96705;-85
2022/06/25 06:24:17;;;;;;;2.60;2.30;;;;;;;24.40;54.79;100941.34;4948411;28;96145;-87
2022/06/25 06:26:43;;;;;;;2.90;2.70;;;;;;;24.44;54.64;100936.78;4947938;28;96870;-85
2022/06/25 06:29:08;;;;;;;1.90;1.80;;;;;;;24.46;54.59;100934.13;4949299;28;96792;-85
2022/06/25 06:31:34;;;;;;;2.63;2.43;;;;;;;24.44;54.22;100944.50;4957767;28;96620;-85
2022/06/25 06:33:59;;;;;;;1.97;1.87;;;;;;;24.52;54.37;100942.31;4977622;28;96957;-86
2022/06/25 06:36:25;;;;;;;2.47;2.37;;;;;;;24.61;54.22;100938.84;4951503;28;96921;-86
2022/06/25 06:38:50;;;;;;;2.00;1.90;;;;;;;24.66;54.04;100956.78;4940648;28;98237;-86
2022/06/25 06:41:18;;;;;;;2.17;2.07;;;;;;;24.70;53.82;100946.59;4955850;28;96901;-84
2022/06/25 06:43:45;;;;;;;2.20;2.10;;;;;;;24.73;54.00;100942.59;4953103;28;96510;-89
2022/06/25 06:46:13;;;;;;;2.00;1.90;;;;;;;24.80;53.69;100955.84;4963291;28;98181;-87
2022/06/25 06:48:41;;;;;;;2.80;1.80;;;;;;;24.85;53.54;100959.72;4960506;28;96836;-84
2022/06/25 06:51:07;;;;;;;2.33;2.23;;;;;;;24.88;53.13;100944.47;4954539;28;97096;-84
2022/06/25 06:53:33;;;;;;;1.40;1.30;;;;;;;24.96;52.94;100945.84;4942785;28;96529;-86
2022/06/25 06:56:00;;;;;;;1.50;1.40;;;;;;;25.00;52.86;100940.53;4959961;28;96874;-84
2022/06/25 06:58:26;;;;;;;1.63;1.57;;;;;;;25.03;52.57;100936.50;4956145;28;98169;-85
2022/06/25 07:00:51;;;;;;;1.43;1.33;;;;;;;25.12;52.64;100949.13;4954666;28;97171;-86
2022/06/25 07:03:17;;;;;;;1.33;1.27;;;;;;;25.18;52.34;100947.53;4962370;28;96539;-85
2022/06/25 07:05:45;;;;;;;2.00;1.50;;;;;;;25.26;52.12;100956.63;4961808;28;101098;-86
2022/06/25 07:08:10;;;;;;;1.53;1.40;;;;;;;25.30;51.87;100956.91;4956273;28;97334;-89
2022/06/25 07:10:36;;;;;;;2.90;1.53;;;;;;;25.33;51.65;100971.91;4959038;28;96687;-84
2022/06/25 07:13:01;;;;;;;2.03;1.43;;;;;;;25.40;51.56;100959.03;4964362;28;96863;-83
2022/06/25 07:15:26;;;;;;;1.10;1.10;;;;;;;25.44;51.47;100948.84;4953444;28;98844;-90
2022/06/25 07:17:52;;;;;;;1.70;1.60;;;;;;;25.50;51.23;100959.81;4945533;28;96691;-87
2022/06/25 07:20:38;;;;;;;1.63;1.20;;;;;;;25.56;50.55;100955.38;4915452;28;96789;-86
2022/06/25 07:23:27;;;;;;;1.40;1.30;;;;;;;25.62;50.20;100952.28;4915509;28;97232;-90
2022/06/25 07:25:55;;;;;;;0.80;0.80;;;;;;;25.71;50.45;100957.16;4902177;28;101085;-91
2022/06/25 07:28:21;;;;;;;1.43;1.33;;;;;;;25.71;50.26;100971.25;4956007;28;97083;-89
2022/06/25 07:30:47;;;;;;;1.30;1.30;;;;;;;25.73;50.21;100962.97;4946901;28;97117;-86
2022/06/25 07:33:12;;;;;;;1.17;1.10;;;;;;;25.79;49.90;100975.44;4940623;28;96902;-86
2022/06/25 07:35:38;;;;;;;1.20;1.20;;;;;;;25.86;49.75;100979.44;4947600;28;100974;-87
2022/06/25 07:38:03;;;;;;;1.77;1.50;;;;;;;25.91;49.72;100969.94;4943804;28;96945;-86
2022/06/25 07:40:29;;;;;;;1.50;1.40;;;;;;;25.97;49.75;100964.78;4915998;28;96607;-89
2022/06/25 07:42:54;;;;;;;1.47;1.37;;;;;;;26.04;49.79;100969.50;4931657;28;96722;-89
2022/06/25 07:45:20;;;;;;;1.10;1.07;;;;;;;26.10;49.55;100961.53;4937353;28;97016;-88
2022/06/25 07:47:45;;;;;;;1.20;1.10;;;;;;;26.20;49.21;101001.00;4949290;28;96983;-87
2022/06/25 07:52:55;;;;;;;0.90;0.90;;;;;;;26.33;48.90;100970.25;4945747;28;96943;-85
2022/06/25 07:55:20;;;;;;;1.10;1.00;;;;;;;26.41;48.50;100972.91;4940364;28;96705;-87
2022/06/25 07:57:46;;;;;;;0.80;0.80;;;;;;;26.47;48.31;100967.72;4938619;28;96984;-84
2022/06/25 08:00:12;;;;;;;0.97;0.83;;;;;;;26.56;47.91;100983.91;4946455;28;97672;-88
2022/06/25 08:02:38;;;;;;;1.27;1.10;;;;;;;26.58;47.75;100965.00;4949358;28;97265;-87
2022/06/25 08:05:03;;;;;;;1.30;0.90;;;;;;;26.65;47.41;100977.47;4943894;28;98190;-88
2022/06/25 08:07:29;;;;;;;1.20;1.10;;;;;;;26.70;47.26;100973.59;4941851;28;97349;-87
2022/06/25 08:09:54;;;;;;;1.13;1.00;;;;;;;26.77;47.12;100981.19;4952247;28;96756;-88
2022/06/25 08:12:22;;;;;;;1.57;0.90;;;;;;;26.84;47.12;100979.53;4950396;28;96963;-89
2022/06/25 08:14:48;;;;;;;1.43;1.23;;;;;;;26.89;46.92;100975.66;4944081;28;102055;-89
2022/06/25 08:17:21;;;;;;;1.00;0.80;;;;;;;26.97;45.58;100982.63;4943745;28;101595;-88
2022/06/25 08:19:47;;;;;;;1.00;1.00;;;;;;;26.98;46.56;100983.34;4950065;28;96717;-89
2022/06/25 08:22:12;;;;;;;1.20;1.10;;;;;;;27.06;46.64;100979.00;4951790;28;97332;-89
2022/06/25 08:24:38;;;;;;;1.40;1.30;;;;;;;27.11;46.46;100982.84;4945343;28;96950;-89
2022/06/25 08:27:03;;;;;;;1.20;1.10;;;;;;;27.21;46.49;100973.00;4939186;28;96706;-89
2022/06/25 08:29:32;;;;;;;1.30;1.20;;;;;;;27.32;46.42;100975.16;4936991;28;97035;-88
2022/06/25 08:31:58;;;;;;;1.13;1.03;;;;;;;27.43;46.38;100988.66;4948613;28;97071;-87
2022/06/25 08:34:23;;;;;;;1.33;1.23;;;;;;;27.57;46.28;100982.47;4934729;28;97432;-89
2022/06/25 08:36:49;;;;;;;1.33;1.23;;;;;;;27.67;46.17;100983.91;4948459;28;96982;-86
2022/06/25 08:39:14;;;;;;;1.30;0.83;;;;;;;27.77;45.78;100986.66;4947560;28;96895;-89
2022/06/25 08:41:41;;;;;;;1.20;1.10;;;;;;;27.79;45.53;100983.97;4947513;28;97166;-88
2022/06/25 08:44:06;;;;;;;1.30;1.20;;;;;;;27.82;45.36;100989.16;4946225;28;97199;-90
2022/06/25 08:46:33;;;;;;;0.80;0.80;;;;;;;27.85;45.25;100987.22;4944119;28;97551;-89
2022/06/25 08:49:01;;;;;;;0.90;0.90;;;;;;;27.91;45.16;100982.69;4948984;28;96866;-89
2022/06/25 08:51:28;;;;;;;1.00;0.73;;;;;;;27.92;45.03;100975.69;4948315;28;96947;-91
2022/06/25 08:53:55;;;;;;;1.17;0.80;;;;;;;28.05;44.87;100982.91;4945738;28;97109;-92
2022/06/25 08:56:23;;;;;;;0.93;0.83;;;;;;;28.23;44.72;100989.75;4948478;28;99823;-89
2022/06/25 08:58:49;;;;;;;1.10;1.00;;;;;;;28.36;43.88;100988.44;4944298;28;96898;-88
2022/06/25 09:01:14;;;;;;;2.40;0.80;;;;;;;28.40;43.59;100994.34;4941421;28;96917;-89
2022/06/25 09:03:39;;;;;;;1.00;0.90;;;;;;;28.48;43.35;100977.91;4938681;28;97121;-87
2022/06/25 09:06:16;;;;;;;1.00;0.80;;;;;;;28.58;42.30;100981.38;4947597;28;97112;-91
2022/06/25 09:08:42;;;;;;;1.00;1.00;;;;;;;28.71;42.99;100983.63;4943846;28;97136;-87
2022/06/25 09:11:08;;;;;;;0.80;0.80;;;;;;;28.83;42.89;100990.06;4943838;28;97077;-86
2022/06/25 09:13:34;;;;;;;1.23;0.90;;;;;;;28.91;42.42;100999.06;4936393;28;101855;-87
2022/06/25 09:15:59;;;;;;;0.90;0.90;;;;;;;28.98;42.36;101009.44;4945998;28;99434;-87
2022/06/25 09:18:57;;;;;;;0.70;0.60;;;;;;;29.02;41.21;100972.09;4922875;28;97178;-90
2022/06/25 09:21:24;;;;;;;0.70;0.67;;;;;;;29.04;41.90;100992.03;4945613;28;96810;-87
2022/06/25 09:24:03;;;;;;;0.90;0.80;;;;;;;28.92;41.15;100980.69;4967761;28;97173;-89
2022/06/25 09:26:29;;;;;;;0.70;0.70;;;;;;;29.01;42.00;100988.34;4949849;28;97847;-90
2022/06/25 09:28:59;;;;;;;1.10;0.83;;;;;;;29.27;41.82;100975.81;4938466;28;97181;-88
2022/06/25 09:31:35;;;;;;;0.67;0.67;;;;;;;29.55;40.58;100977.50;4945481;28;96825;-88
2022/06/25 09:34:03;;;;;;;0.80;0.80;;;;;;;29.77;41.24;100974.53;4932176;28;100987;-88
2022/06/25 09:36:29;;;;;;;1.07;0.97;;;;;;;30.01;41.13;100973.81;4938188;28;97508;-86
2022/06/25 09:38:55;;;;;;;2.17;0.70;;;;;;;30.19;40.43;100969.19;4940903;28;96913;-86
2022/06/25 09:41:23;;;;;;;1.30;0.90;;;;;;;30.34;40.11;100967.88;4945240;28;96816;-86
2022/06/25 09:43:48;;;;;;;0.87;0.70;;;;;;;30.33;39.81;100966.44;4940409;28;98360;-88
2022/06/25 09:46:25;;;;;;;0.80;0.70;;;;;;;30.15;40.01;100966.09;4915923;28;97148;-90
2022/06/25 09:48:52;;;;;;;3.80;0.60;;;;;;;30.12;40.02;100969.47;4918967;28;96875;-89
2022/06/25 09:51:28;;;;;;;0.70;0.63;;;;;;;29.95;40.18;100967.03;4943167;28;96673;-91
2022/06/25 09:53:56;;;;;;;1.43;0.70;;;;;;;29.89;39.90;100972.38;4948789;28;102305;-88
2022/06/25 09:56:26;;;;;;;1.23;0.67;;;;;;;29.83;40.00;100955.75;4949581;28;99258;-88
2022/06/25 09:58:55;;;;;;;0.90;0.80;;;;;;;30.00;40.09;100951.75;4940625;28;96969;-88
2022/06/25 10:01:24;;;;;;;1.10;0.80;;;;;;;30.27;39.82;100958.25;4942669;28;97013;-89
2022/06/25 10:03:50;;;;;;;0.60;0.50;;;;;;;30.56;39.61;100965.56;4957425;28;98710;-92
2022/06/25 10:06:21;;;;;;;0.87;0.87;;;;;;;30.71;39.22;100965.69;4946159;28;97113;-88
2022/06/25 10:08:51;;;;;;;0.80;0.70;;;;;;;30.97;38.76;100966.41;4936011;28;97789;-88
2022/06/25 10:11:19;;;;;;;0.83;0.83;;;;;;;31.13;38.27;100969.38;4933354;28;97292;-88
2022/06/25 10:13:48;;;;;;;0.77;0.70;;;;;;;31.21;38.32;100970.53;4945171;28;97450;-90
2022/06/25 10:16:16;;;;;;;0.73;0.73;;;;;;;31.33;38.14;100967.56;4937605;28;98417;-91
2022/06/25 10:18:43;;;;;;;1.87;0.70;;;;;;;31.12;37.92;100962.19;4960066;22;96800;-86
2022/06/25 10:21:09;;;;;;;0.70;0.60;;;;;;;30.89;37.83;101000.06;4946758;28;99150;-86
2022/06/25 10:23:36;;;;;;;1.10;0.80;;;;;;;30.60;38.22;100972.19;4935435;28;99430;-85
2022/06/25 10:26:02;;;;;;;4.37;0.70;;;;;;;30.49;38.07;100981.53;4940287;28;98168;-85
2022/06/25 10:28:32;;;;;;;0.70;0.67;;;;;;;30.30;38.50;100967.63;4915653;28;97680;-85
2022/06/25 10:30:58;;;;;;;1.00;0.67;;;;;;;30.34;38.55;100979.25;4932594;28;97167;-86
2022/06/25 10:33:29;;;;;;;0.97;0.77;;;;;;;30.32;38.18;100957.16;4927499;28;99621;-84
2022/06/25 10:36:04;;;;;;;5.00;0.60;;;;;;;30.25;38.14;100955.31;4954428;28;104022;-85
2022/06/25 10:38:30;;;;;;;1.13;0.63;;;;;;;30.20;38.41;100947.94;4957002;28;99809;-86
2022/06/25 10:42:58;;;;;;;1.00;0.90;;;;;;;30.40;37.83;100951.22;4960774;28;96879;-87
2022/06/25 10:43:50;;;;;;;0.70;0.60;;;;;;;30.40;38.05;100942.69;4960434;28;102344;-86
2022/06/25 10:46:38;;;;;;;0.83;0.80;;;;;;;30.33;37.76;100955.06;4966853;28;99724;-85
2022/06/25 10:49:08;;;;;;;1.13;1.00;;;;;;;30.45;37.86;100940.81;4957928;28;99570;-84
2022/06/25 10:51:45;;;;;;;0.77;0.77;;;;;;;30.62;37.81;100935.38;4964589;28;98419;-86
2022/06/25 10:54:22;;;;;;;1.13;1.00;;;;;;;30.78;37.52;100936.25;4965255;28;103612;-86
2022/06/25 10:56:50;;;;;;;0.70;0.70;;;;;;;30.96;37.12;100936.50;4962363;28;101748;-84
2022/06/25 10:59:48;;;;;;;0.80;0.70;;;;;;;31.08;36.31;100935.03;4966635;28;97367;-86
2022/06/25 11:02:17;;;;;;;0.80;0.80;;;;;;;30.99;36.72;100949.47;4956716;28;99578;-84
2022/06/25 11:04:54;;;;;;;0.67;0.63;;;;;;;30.76;36.13;100949.59;4962573;28;97738;-85
2022/06/25 11:07:22;;;;;;;0.80;0.70;;;;;;;30.72;36.92;100940.84;4960990;28;98585;-87
2022/06/25 11:09:52;;;;;;;0.70;0.70;;;;;;;30.66;36.64;100941.28;4967751;28;96971;-86
2022/06/25 11:12:17;;;;;;;1.13;0.50;;;;;;;30.70;36.77;100938.66;4923240;28;96975;-86
2022/06/25 11:15:03;;;;;;;1.20;1.10;;;;;;;30.72;36.71;100947.28;4907036;28;99220;-84
2022/06/25 11:17:30;;;;;;;1.00;0.90;;;;;;;30.58;36.58;100945.78;4931069;28;100677;-87
2022/06/25 11:20:03;;;;;;;0.60;0.60;;;;;;;30.67;36.25;100945.59;4928323;28;97395;-86
2022/06/25 11:22:28;;;;;;;0.87;0.80;;;;;;;30.95;36.43;100949.25;4934011;28;98350;-87
2022/06/25 11:30:23;;;;;;;1.53;0.60;;;;;;;30.73;36.33;100956.56;4979077;28;96894;-85
2022/06/25 11:32:50;;;;;;;1.53;0.80;;;;;;;30.76;36.17;100952.44;4984922;28;103493;-87
2022/06/25 11:35:16;;;;;;;1.73;0.60;;;;;;;31.01;35.16;100938.19;4986354;28;96787;-89
2022/06/25 11:37:41;;;;;;;0.70;0.70;;;;;;;30.96;35.27;100965.66;4987170;28;99249;-86
2022/06/25 11:40:16;;;;;;;0.70;0.63;;;;;;;30.84;34.91;100938.69;4970743;28;96907;-85
2022/06/25 11:42:43;;;;;;;1.23;0.90;;;;;;;31.00;35.62;100939.53;4964884;28;96958;-86